Time;durP1;ratioP1;P1;durP2;ratioP2;P2;SDS_P1;SDS_P2;PMS_P1;PMS_P2;Temp;Humidity;BMP_temperature;BMP_pressure;BME280_temperature;BME280_humidity;BME280_pressure;Samples;Min_cycle;Max_cycle;Signal;HPM_P1;HPM_P2
2022/04/14 00:01:18;;;;;;;5.00;2.80;;;;;;;;;;5062777;28;20603;-86
2022/04/14 00:03:44;;;;;;;6.47;3.50;;;;;;;;;;5062218;28;20431;-86
2022/04/14 00:06:10;;;;;;;2.67;2.47;;;;;;;;;;5063364;28;20466;-86
2022/04/14 00:08:36;;;;;;;3.70;2.93;;;;;;;;;;5064337;28;20438;-85
2022/04/14 00:11:02;;;;;;;3.70;3.07;;;;;;;;;;5063333;28;20446;-86
2022/04/14 00:13:28;;;;;;;3.40;2.60;;;;;;;;;;5065042;28;20939;-86
2022/04/14 00:15:54;;;;;;;4.15;3.60;;;;;;;;;;5062757;28;20240;-86
2022/04/14 00:18:20;;;;;;;3.50;2.87;;;;;;;;;;5062852;28;20550;-86
2022/04/14 00:20:46;;;;;;;3.63;2.60;;;;;;;;;;5061937;28;20438;-86
2022/04/14 00:23:12;;;;;;;4.57;2.87;;;;;;;;;;5063604;28;20435;-85
2022/04/14 00:25:38;;;;;;;4.27;2.87;;;;;;;;;;5063879;28;20454;-86
2022/04/14 00:28:04;;;;;;;5.47;2.67;;;;;;;;;;5063615;28;20503;-85
2022/04/14 00:30:30;;;;;;;4.75;2.70;;;;;;;;;;5060886;28;20197;-86
2022/04/14 00:32:56;;;;;;;3.97;3.17;;;;;;;;;;5061387;28;20211;-85
2022/04/14 00:35:22;;;;;;;7.30;3.10;;;;;;;;;;5078234;28;20460;-84
2022/04/14 00:37:48;;;;;;;5.25;2.47;;;;;;;;;;5080946;28;20626;-85
2022/04/14 00:40:14;;;;;;;3.67;2.53;;;;;;;;;;5060885;28;20192;-85
2022/04/14 00:42:41;;;;;;;4.30;2.67;;;;;;;;;;5062457;28;20177;-86
2022/04/14 00:45:07;;;;;;;2.67;2.10;;;;;;;;;;5064124;28;20435;-86
2022/04/14 00:47:35;;;;;;;3.30;2.20;;;;;;;;;;5063426;28;20252;-85
2022/04/14 00:50:02;;;;;;;2.50;2.30;;;;;;;;;;5074844;28;20237;-86
2022/04/14 00:52:28;;;;;;;2.30;2.20;;;;;;;;;;5063811;28;20199;-85
2022/04/14 00:54:53;;;;;;;3.00;2.30;;;;;;;;;;5057396;28;20252;-86
2022/04/14 00:57:19;;;;;;;4.83;3.50;;;;;;;;;;5060862;28;20428;-85
2022/04/14 00:59:46;;;;;;;3.25;2.50;;;;;;;;;;5061622;28;20442;-85
2022/04/14 01:02:12;;;;;;;9.38;2.50;;;;;;;;;;5063240;28;20178;-84
2022/04/14 01:04:38;;;;;;;3.00;2.25;;;;;;;;;;5064142;28;20177;-85
2022/04/14 01:07:06;;;;;;;3.92;2.70;;;;;;;;;;5063406;28;20181;-84
2022/04/14 01:09:33;;;;;;;5.00;2.40;;;;;;;;;;5061928;28;20208;-85
2022/04/14 01:12:00;;;;;;;5.95;2.97;;;;;;;;;;5063044;28;20195;-85
2022/04/14 01:14:30;;;;;;;3.13;2.50;;;;;;;;;;5061619;28;20225;-85
2022/04/14 01:16:57;;;;;;;3.20;2.03;;;;;;;;;;5069592;28;20728;-85
2022/04/14 01:19:24;;;;;;;6.13;3.58;;;;;;;;;;5062287;28;20264;-85
2022/04/14 01:22:18;;;;;;;5.30;2.55;;;;;;;;;;5060603;28;20205;-85
2022/04/14 01:24:44;;;;;;;2.20;2.00;;;;;;;;;;5061651;28;20208;-85
2022/04/14 01:27:10;;;;;;;2.63;2.25;;;;;;;;;;5062065;28;20237;-85
2022/04/14 01:29:36;;;;;;;3.45;2.40;;;;;;;;;;5060844;28;20197;-86
2022/04/14 01:32:02;;;;;;;2.92;1.92;;;;;;;;;;5064594;28;20188;-85
2022/04/14 01:34:32;;;;;;;2.40;2.20;;;;;;;;;;5061926;28;20177;-86
2022/04/14 01:37:00;;;;;;;4.05;3.10;;;;;;;;;;5061940;28;20197;-86
2022/04/14 01:39:26;;;;;;;3.45;2.17;;;;;;;;;;5061403;28;20188;-86
2022/04/14 01:41:52;;;;;;;4.00;2.47;;;;;;;;;;5061695;28;20201;-85
2022/04/14 01:44:18;;;;;;;3.47;2.50;;;;;;;;;;5062068;28;20188;-85
2022/04/14 01:46:44;;;;;;;3.97;2.50;;;;;;;;;;5065629;28;20441;-85
2022/04/14 01:49:10;;;;;;;3.08;2.08;;;;;;;;;;5076677;28;20224;-85
2022/04/14 01:51:36;;;;;;;2.55;2.15;;;;;;;;;;5061214;28;20253;-85
2022/04/14 01:54:02;;;;;;;6.50;2.70;;;;;;;;;;5059415;28;20220;-85
2022/04/14 01:56:28;;;;;;;5.65;2.45;;;;;;;;;;5061332;28;20209;-86
2022/04/14 01:58:54;;;;;;;3.00;2.80;;;;;;;;;;5063868;28;20174;-86
2022/04/14 02:01:21;;;;;;;3.67;2.00;;;;;;;;;;5064183;28;21250;-86
2022/04/14 02:03:47;;;;;;;2.25;1.90;;;;;;;;;;5059867;28;20439;-84
2022/04/14 02:06:13;;;;;;;4.60;2.20;;;;;;;;;;5060471;28;20189;-85
2022/04/14 02:08:40;;;;;;;2.50;2.10;;;;;;;;;;5061436;28;20184;-85
2022/04/14 02:11:06;;;;;;;2.55;1.92;;;;;;;;;;5062934;28;20622;-85
2022/04/14 02:13:33;;;;;;;2.65;2.33;;;;;;;;;;5063456;28;20177;-85
2022/04/14 02:15:59;;;;;;;8.65;2.60;;;;;;;;;;5061642;28;20223;-85
2022/04/14 02:18:25;;;;;;;6.68;2.92;;;;;;;;;;5061008;28;20181;-86
2022/04/14 02:20:51;;;;;;;2.80;2.60;;;;;;;;;;5061222;28;20276;-86
2022/04/14 02:23:17;;;;;;;3.88;2.38;;;;;;;;;;5061957;28;20181;-85
2022/04/14 02:25:43;;;;;;;3.43;2.30;;;;;;;;;;5064613;28;20258;-85
2022/04/14 02:28:09;;;;;;;4.65;2.35;;;;;;;;;;5061152;28;20439;-85
2022/04/14 02:30:35;;;;;;;2.88;2.35;;;;;;;;;;5061528;28;20191;-86
2022/04/14 02:33:01;;;;;;;6.10;3.13;;;;;;;;;;5059715;28;20189;-85
2022/04/14 02:35:27;;;;;;;3.92;2.38;;;;;;;;;;5060196;28;20209;-84
2022/04/14 02:37:55;;;;;;;4.65;2.50;;;;;;;;;;5063911;28;20242;-86
2022/04/14 02:40:22;;;;;;;5.88;2.47;;;;;;;;;;5060744;28;20173;-86
2022/04/14 02:42:48;;;;;;;6.30;2.58;;;;;;;;;;5060103;28;20169;-85
2022/04/14 02:45:14;;;;;;;4.90;2.53;;;;;;;;;;5058318;28;20227;-85
2022/04/14 02:47:40;;;;;;;2.50;2.30;;;;;;;;;;5077841;28;20427;-86
2022/04/14 02:50:06;;;;;;;2.80;2.20;;;;;;;;;;5077342;28;20428;-85
2022/04/14 02:52:32;;;;;;;5.28;2.60;;;;;;;;;;5061801;28;20271;-85
2022/04/14 02:54:58;;;;;;;4.85;2.75;;;;;;;;;;5060370;28;20192;-84
2022/04/14 02:57:24;;;;;;;4.35;3.25;;;;;;;;;;5076810;28;20204;-85
2022/04/14 02:59:50;;;;;;;3.83;3.38;;;;;;;;;;5061351;28;20203;-85
2022/04/14 03:02:16;;;;;;;3.17;2.50;;;;;;;;;;5045331;28;20177;-85
2022/04/14 03:04:42;;;;;;;5.27;2.80;;;;;;;;;;5063401;28;20173;-85
2022/04/14 03:07:08;;;;;;;3.00;2.50;;;;;;;;;;5059354;28;20972;-85
2022/04/14 03:09:34;;;;;;;5.45;2.85;;;;;;;;;;5060431;28;20450;-85
2022/04/14 03:12:00;;;;;;;3.40;2.88;;;;;;;;;;5060137;28;20184;-85
2022/04/14 03:14:26;;;;;;;8.65;2.55;;;;;;;;;;5059895;28;20221;-86
2022/04/14 03:16:52;;;;;;;3.03;2.50;;;;;;;;;;5063116;28;20220;-85
2022/04/14 03:19:18;;;;;;;3.55;2.33;;;;;;;;;;5061586;28;20193;-85
2022/04/14 03:21:46;;;;;;;4.22;2.90;;;;;;;;;;5060535;28;20192;-85
2022/04/14 03:24:12;;;;;;;4.93;2.65;;;;;;;;;;5060663;28;20173;-85
2022/04/14 03:26:38;;;;;;;4.32;3.05;;;;;;;;;;5061070;28;22207;-86
2022/04/14 03:29:04;;;;;;;3.97;2.43;;;;;;;;;;5077498;28;20188;-85
2022/04/14 03:31:31;;;;;;;6.47;3.00;;;;;;;;;;5062033;28;20430;-86
2022/04/14 03:33:57;;;;;;;7.15;3.03;;;;;;;;;;5059820;28;20438;-86
2022/04/14 03:36:23;;;;;;;3.93;2.70;;;;;;;;;;5059443;28;20205;-85
2022/04/14 03:38:49;;;;;;;3.33;3.03;;;;;;;;;;5059063;28;20481;-85
2022/04/14 03:41:15;;;;;;;3.43;2.40;;;;;;;;;;5060516;28;20483;-85
2022/04/14 03:43:41;;;;;;;3.10;2.42;;;;;;;;;;5062362;28;20441;-86
2022/04/14 03:46:08;;;;;;;3.63;3.17;;;;;;;;;;5058926;28;20218;-85
2022/04/14 03:48:34;;;;;;;2.45;2.25;;;;;;;;;;5059509;28;20749;-85
2022/04/14 03:51:00;;;;;;;3.03;2.50;;;;;;;;;;5058812;28;20330;-85
2022/04/14 03:53:26;;;;;;;4.10;3.00;;;;;;;;;;5060488;28;20210;-85
2022/04/14 03:55:52;;;;;;;3.60;2.70;;;;;;;;;;5078240;28;20189;-84
2022/04/14 03:58:19;;;;;;;2.92;2.60;;;;;;;;;;5059879;28;20169;-84
2022/04/14 04:00:45;;;;;;;4.90;4.55;;;;;;;;;;5058427;28;20181;-85
2022/04/14 04:03:12;;;;;;;4.30;3.00;;;;;;;;;;5060352;28;20464;-85
2022/04/14 04:05:38;;;;;;;6.10;3.95;;;;;;;;;;5062984;28;20182;-85
2022/04/14 04:08:07;;;;;;;3.30;3.00;;;;;;;;;;5081045;28;20203;-85
2022/04/14 04:10:34;;;;;;;3.95;3.00;;;;;;;;;;5065493;28;20185;-85
2022/04/14 04:13:00;;;;;;;5.38;3.20;;;;;;;;;;5062280;28;20183;-85
2022/04/14 04:15:26;;;;;;;4.37;3.50;;;;;;;;;;5063661;28;20707;-85
2022/04/14 04:17:52;;;;;;;8.17;3.60;;;;;;;;;;5061612;28;20545;-86
2022/04/14 04:20:19;;;;;;;6.10;3.50;;;;;;;;;;5063485;28;20439;-85
2022/04/14 04:22:45;;;;;;;4.88;2.88;;;;;;;;;;5067263;28;20165;-85
2022/04/14 04:25:11;;;;;;;3.22;2.83;;;;;;;;;;5065028;28;20197;-85
2022/04/14 04:27:37;;;;;;;3.90;3.60;;;;;;;;;;5061259;28;20181;-84
2022/04/14 04:30:07;;;;;;;8.93;3.70;;;;;;;;;;5061129;28;20192;-84
2022/04/14 04:32:34;;;;;;;5.40;3.70;;;;;;;;;;5063225;28;20181;-85
2022/04/14 04:35:00;;;;;;;8.30;3.80;;;;;;;;;;5080840;28;20181;-84
2022/04/14 04:37:26;;;;;;;4.15;3.70;;;;;;;;;;5063077;28;20246;-85
2022/04/14 04:39:52;;;;;;;7.00;3.45;;;;;;;;;;5060743;28;20650;-85
2022/04/14 04:42:18;;;;;;;5.38;3.50;;;;;;;;;;5061601;28;20178;-85
2022/04/14 04:44:44;;;;;;;4.78;3.80;;;;;;;;;;5061318;28;20181;-85
2022/04/14 04:47:10;;;;;;;3.77;3.17;;;;;;;;;;5063586;28;20177;-86
2022/04/14 04:49:36;;;;;;;9.57;7.17;;;;;;;;;;5066072;28;20823;-84
2022/04/14 04:52:02;;;;;;;7.20;4.35;;;;;;;;;;5063185;28;20459;-86
2022/04/14 04:54:28;;;;;;;6.53;4.22;;;;;;;;;;5062947;28;20568;-85
2022/04/14 04:56:54;;;;;;;10.33;4.47;;;;;;;;;;5060705;28;20205;-85
2022/04/14 04:59:21;;;;;;;5.97;3.85;;;;;;;;;;5061769;28;20469;-84
2022/04/14 05:01:47;;;;;;;5.03;4.00;;;;;;;;;;5075322;28;20174;-85
2022/04/14 05:04:12;;;;;;;6.75;3.90;;;;;;;;;;5077237;28;20192;-85
2022/04/14 05:06:39;;;;;;;5.00;3.77;;;;;;;;;;5060792;28;20181;-86
2022/04/14 05:09:05;;;;;;;4.53;3.45;;;;;;;;;;5061899;28;20446;-85
2022/04/14 05:11:31;;;;;;;4.47;4.05;;;;;;;;;;5062097;28;20193;-84
2022/04/14 05:13:57;;;;;;;4.38;3.95;;;;;;;;;;5064423;28;20240;-83
2022/04/14 05:16:23;;;;;;;11.98;4.45;;;;;;;;;;5060892;28;20235;-86
2022/04/14 05:18:50;;;;;;;6.30;4.10;;;;;;;;;;5060961;28;20188;-85
2022/04/14 05:21:16;;;;;;;6.10;4.07;;;;;;;;;;5060207;28;20244;-85
2022/04/14 05:23:42;;;;;;;8.80;4.70;;;;;;;;;;5062285;28;20173;-84
2022/04/14 05:26:08;;;;;;;6.32;4.22;;;;;;;;;;5078871;28;20233;-84
2022/04/14 05:28:34;;;;;;;5.45;4.78;;;;;;;;;;5064036;28;20180;-85
2022/04/14 05:31:00;;;;;;;6.03;4.80;;;;;;;;;;5061168;28;20199;-84
2022/04/14 05:33:26;;;;;;;8.55;5.38;;;;;;;;;;5061858;28;20185;-85
2022/04/14 05:35:52;;;;;;;5.43;4.85;;;;;;;;;;5059430;28;20272;-83
2022/04/14 05:38:18;;;;;;;5.18;4.68;;;;;;;;;;5062345;28;20177;-85
2022/04/14 05:40:45;;;;;;;5.88;4.57;;;;;;;;;;5063738;28;20169;-85
2022/04/14 05:43:18;;;;;;;5.93;4.82;;;;;;;;;;5061781;28;20173;-85
2022/04/14 05:45:48;;;;;;;11.15;5.50;;;;;;;;;;5060295;28;20227;-85
2022/04/14 05:48:17;;;;;;;6.43;4.80;;;;;;;;;;5059661;28;20178;-84
2022/04/14 05:50:44;;;;;;;6.55;5.22;;;;;;;;;;5076722;28;20185;-84
2022/04/14 05:53:10;;;;;;;6.43;5.82;;;;;;;;;;5077941;28;20181;-85
2022/04/14 05:55:36;;;;;;;7.30;5.05;;;;;;;;;;5063810;28;20256;-84
2022/04/14 05:58:03;;;;;;;6.43;5.07;;;;;;;;;;5061763;28;20177;-85
2022/04/14 06:00:30;;;;;;;5.97;5.38;;;;;;;;;;5060070;28;20189;-85
2022/04/14 06:02:56;;;;;;;6.45;5.30;;;;;;;;;;5061702;28;20263;-85
2022/04/14 06:05:25;;;;;;;10.60;5.32;;;;;;;;;;5077779;28;20541;-84
2022/04/14 06:07:51;;;;;;;6.05;5.55;;;;;;;;;;5080054;28;20651;-84
2022/04/14 06:10:17;;;;;;;9.82;5.60;;;;;;;;;;5060058;28;20209;-85
2022/04/14 06:12:43;;;;;;;7.80;6.07;;;;;;;;;;5059429;28;20216;-85
2022/04/14 06:15:09;;;;;;;7.60;5.67;;;;;;;;;;5061133;28;20303;-85
2022/04/14 06:17:35;;;;;;;12.80;6.63;;;;;;;;;;5061452;28;20447;-85
2022/04/14 06:20:03;;;;;;;7.60;6.80;;;;;;;;;;5063170;28;20193;-84
2022/04/14 06:22:29;;;;;;;8.98;7.07;;;;;;;;;;5064694;28;20252;-85
2022/04/14 06:24:58;;;;;;;15.95;8.82;;;;;;;;;;5076279;28;20240;-84
2022/04/14 06:27:24;;;;;;;16.40;7.68;;;;;;;;;;5059303;28;20185;-86
2022/04/14 06:29:50;;;;;;;16.37;9.00;;;;;;;;;;5060986;28;20187;-85
2022/04/14 06:32:16;;;;;;;11.97;8.37;;;;;;;;;;5076357;28;20489;-85
2022/04/14 06:34:41;;;;;;;17.50;9.80;;;;;;;;;;5064124;28;20785;-86
2022/04/14 06:37:07;;;;;;;10.60;8.10;;;;;;;;;;5059833;28;20320;-83
2022/04/14 06:39:33;;;;;;;14.67;9.30;;;;;;;;;;5058986;28;20435;-85
2022/04/14 06:41:59;;;;;;;20.80;8.70;;;;;;;;;;5075957;28;20450;-85
2022/04/14 06:44:25;;;;;;;10.37;8.70;;;;;;;;;;5060802;28;20441;-85
2022/04/14 06:46:51;;;;;;;12.20;8.10;;;;;;;;;;5064495;28;20423;-84
2022/04/14 06:49:17;;;;;;;10.45;8.68;;;;;;;;;;5060502;28;20407;-86
2022/04/14 06:51:43;;;;;;;13.87;10.73;;;;;;;;;;5060039;28;20295;-86
2022/04/14 06:54:09;;;;;;;14.07;9.47;;;;;;;;;;5059042;28;20801;-85
2022/04/14 06:56:35;;;;;;;13.10;9.17;;;;;;;;;;5060197;28;20470;-85
2022/04/14 06:59:01;;;;;;;10.20;8.90;;;;;;;;;;5063445;28;20518;-86
2022/04/14 07:01:27;;;;;;;12.27;9.65;;;;;;;;;;5060026;28;20464;-85
2022/04/14 07:03:53;;;;;;;13.05;10.30;;;;;;;;;;5068540;28;20185;-86
2022/04/14 07:06:19;;;;;;;10.90;9.80;;;;;;;;;;5066184;28;20215;-84
2022/04/14 07:08:45;;;;;;;14.90;9.98;;;;;;;;;;5069988;28;20242;-86
2022/04/14 07:11:12;;;;;;;14.80;10.32;;;;;;;;;;5061675;28;20198;-86
2022/04/14 07:13:38;;;;;;;16.08;11.60;;;;;;;;;;5047450;28;20177;-86
2022/04/14 07:16:04;;;;;;;16.50;11.13;;;;;;;;;;5061088;28;20208;-90
2022/04/14 07:18:30;;;;;;;17.70;11.10;;;;;;;;;;5043822;28;20439;-90
2022/04/14 07:20:56;;;;;;;13.40;11.07;;;;;;;;;;5062248;28;20185;-88
2022/04/14 07:23:23;;;;;;;16.15;10.95;;;;;;;;;;5064098;28;20430;-88
2022/04/14 07:25:49;;;;;;;14.20;10.65;;;;;;;;;;5065254;28;20177;-85
2022/04/14 07:28:15;;;;;;;13.25;10.00;;;;;;;;;;5063347;28;20188;-87
2022/04/14 07:30:42;;;;;;;13.95;10.52;;;;;;;;;;5060974;28;20189;-86
2022/04/14 07:33:08;;;;;;;16.80;11.13;;;;;;;;;;5063311;28;20189;-84
2022/04/14 07:35:34;;;;;;;16.40;11.82;;;;;;;;;;5061758;28;20211;-86
2022/04/14 07:38:00;;;;;;;15.85;10.68;;;;;;;;;;5045414;28;20703;-86
2022/04/14 07:40:26;;;;;;;13.98;11.82;;;;;;;;;;5048124;28;20252;-90
2022/04/14 07:42:55;;;;;;;15.57;10.98;;;;;;;;;;5047371;28;20255;-84
2022/04/14 07:45:21;;;;;;;18.52;11.02;;;;;;;;;;5063927;28;20280;-84
2022/04/14 07:47:47;;;;;;;18.35;12.07;;;;;;;;;;5064745;28;20176;-84
2022/04/14 07:50:19;;;;;;;12.82;10.43;;;;;;;;;;5045935;28;20174;-84
2022/04/14 07:52:45;;;;;;;12.35;10.30;;;;;;;;;;5061085;28;20173;-85
2022/04/14 07:55:12;;;;;;;14.98;11.40;;;;;;;;;;5063409;28;20193;-85
2022/04/14 07:57:38;;;;;;;12.60;11.18;;;;;;;;;;5066758;28;20181;-84
2022/04/14 08:00:05;;;;;;;14.57;10.40;;;;;;;;;;5055898;28;20189;-84
2022/04/14 08:02:31;;;;;;;12.60;10.07;;;;;;;;;;5051733;28;20204;-85
2022/04/14 08:04:57;;;;;;;11.23;9.40;;;;;;;;;;5064969;28;20187;-83
2022/04/14 08:07:23;;;;;;;11.93;8.45;;;;;;;;;;5056849;28;20192;-84
2022/04/14 08:09:49;;;;;;;9.45;8.45;;;;;;;;;;5059297;28;20264;-83
2022/04/14 08:12:15;;;;;;;11.83;8.40;;;;;;;;;;5061785;28;20243;-84
2022/04/14 08:14:41;;;;;;;13.13;7.87;;;;;;;;;;5063224;28;20471;-85
2022/04/14 08:17:07;;;;;;;6.90;6.30;;;;;;;;;;5064361;28;20460;-84
2022/04/14 08:19:34;;;;;;;7.30;6.50;;;;;;;;;;5065447;28;20773;-83
2022/04/14 08:22:01;;;;;;;11.65;7.80;;;;;;;;;;5061604;28;20476;-85
2022/04/14 08:24:27;;;;;;;11.48;6.72;;;;;;;;;;5062012;28;20169;-83
2022/04/14 08:26:53;;;;;;;7.75;6.40;;;;;;;;;;5062841;28;20189;-84
2022/04/14 08:29:20;;;;;;;6.88;6.00;;;;;;;;;;5061509;28;20204;-84
2022/04/14 08:31:46;;;;;;;9.40;7.05;;;;;;;;;;5066200;28;20545;-84
2022/04/14 08:34:12;;;;;;;7.88;6.40;;;;;;;;;;5079492;28;20199;-85
2022/04/14 08:36:38;;;;;;;12.55;7.50;;;;;;;;;;5062292;28;20233;-84
2022/04/14 08:39:04;;;;;;;8.50;7.60;;;;;;;;;;5062362;28;20174;-84
2022/04/14 08:41:32;;;;;;;9.30;8.23;;;;;;;;;;5062136;28;21000;-83
2022/04/14 08:44:01;;;;;;;8.10;7.30;;;;;;;;;;5064342;28;20435;-82
2022/04/14 08:46:31;;;;;;;9.63;7.57;;;;;;;;;;5064471;28;20593;-88
2022/04/14 08:48:57;;;;;;;8.88;7.75;;;;;;;;;;5046075;28;20209;-88
2022/04/14 08:51:26;;;;;;;7.90;7.10;;;;;;;;;;5061439;28;20189;-90
2022/04/14 08:53:52;;;;;;;11.70;8.13;;;;;;;;;;5061482;28;20222;-90
2022/04/14 08:56:19;;;;;;;8.50;7.47;;;;;;;;;;5080023;28;20216;-89
2022/04/14 08:58:46;;;;;;;9.82;8.48;;;;;;;;;;5061131;28;20169;-88
2022/04/14 09:01:16;;;;;;;12.13;8.80;;;;;;;;;;5060766;28;20212;-88
2022/04/14 09:03:42;;;;;;;8.75;7.85;;;;;;;;;;5064132;28;20184;-86
2022/04/14 09:06:08;;;;;;;9.65;8.00;;;;;;;;;;5083698;28;20181;-89
2022/04/14 09:08:34;;;;;;;10.15;8.05;;;;;;;;;;5062468;28;20212;-86
2022/04/14 09:11:01;;;;;;;10.55;8.63;;;;;;;;;;5067311;28;20181;-90
2022/04/14 09:13:27;;;;;;;8.38;7.40;;;;;;;;;;5067551;28;20193;-89
2022/04/14 09:15:53;;;;;;;8.13;6.88;;;;;;;;;;5063810;28;20273;-89
2022/04/14 09:18:19;;;;;;;8.50;6.65;;;;;;;;;;5060515;28;20192;-91
2022/04/14 09:20:48;;;;;;;9.77;7.40;;;;;;;;;;5062602;28;20185;-88
2022/04/14 09:23:15;;;;;;;9.13;7.85;;;;;;;;;;5063774;28;20457;-88
2022/04/14 09:25:42;;;;;;;7.72;7.00;;;;;;;;;;5064221;28;20177;-88
2022/04/14 09:28:09;;;;;;;10.23;7.60;;;;;;;;;;5062341;28;20180;-88
2022/04/14 09:30:35;;;;;;;7.20;6.10;;;;;;;;;;5060309;28;20275;-89
2022/04/14 09:33:02;;;;;;;16.97;7.50;;;;;;;;;;5060114;28;20197;-91
2022/04/14 09:35:31;;;;;;;11.23;8.80;;;;;;;;;;5076607;28;20471;-90
2022/04/14 09:38:02;;;;;;;8.40;7.43;;;;;;;;;;5079442;28;20169;-89
2022/04/14 09:40:30;;;;;;;8.65;7.72;;;;;;;;;;5061879;28;20207;-93
2022/04/14 09:42:56;;;;;;;8.32;7.63;;;;;;;;;;5060343;28;20188;-92
2022/04/14 09:45:22;;;;;;;9.23;8.32;;;;;;;;;;5060581;28;20181;-90
2022/04/14 09:47:49;;;;;;;9.43;8.25;;;;;;;;;;5060832;28;20661;-89
2022/04/14 09:50:28;;;;;;;9.75;8.77;;;;;;;;;;5060767;28;20178;-90
2022/04/14 09:53:07;;;;;;;11.23;9.60;;;;;;;;;;5060455;28;20244;-92
2022/04/14 09:55:38;;;;;;;10.43;9.32;;;;;;;;;;5062122;28;20240;-90
2022/04/14 09:58:10;;;;;;;12.45;8.65;;;;;;;;;;5060051;28;20185;-93
2022/04/14 10:00:43;;;;;;;12.50;8.32;;;;;;;;;;5059317;28;20434;-89
2022/04/14 10:03:15;;;;;;;16.40;8.57;;;;;;;;;;5059577;28;20197;-88
2022/04/14 10:05:42;;;;;;;15.43;11.13;;;;;;;;;;5075959;28;20185;-90
2022/04/14 10:08:08;;;;;;;10.43;9.38;;;;;;;;;;5045113;28;20258;-91
2022/04/14 10:10:42;;;;;;;7.93;6.82;;;;;;;;;;5061667;28;20173;-90
2022/04/14 10:13:09;;;;;;;10.35;7.53;;;;;;;;;;5059858;28;20220;-92
2022/04/14 10:15:37;;;;;;;8.98;6.45;;;;;;;;;;5059839;28;20236;-93
2022/04/14 10:18:07;;;;;;;7.30;6.47;;;;;;;;;;5059727;28;20188;-90
2022/04/14 10:20:34;;;;;;;8.48;5.90;;;;;;;;;;5078061;28;20259;-81
2022/04/14 10:23:00;;;;;;;8.57;6.70;;;;;;;;;;5063183;28;20173;-90
2022/04/14 10:25:27;;;;;;;6.25;5.65;;;;;;;;;;5062881;28;20596;-91
2022/04/14 10:27:54;;;;;;;8.75;5.70;;;;;;;;;;5061489;28;20195;-89
2022/04/14 10:30:20;;;;;;;6.93;4.70;;;;;;;;;;5059354;28;20172;-91
2022/04/14 10:32:46;;;;;;;8.52;5.25;;;;;;;;;;5060729;28;20286;-92
2022/04/14 10:35:13;;;;;;;8.25;5.00;;;;;;;;;;5059980;28;20189;-91
2022/04/14 10:37:42;;;;;;;7.00;5.28;;;;;;;;;;5062095;28;20177;-91
2022/04/14 10:40:12;;;;;;;7.70;4.10;;;;;;;;;;5058861;28;20212;-90
2022/04/14 10:42:39;;;;;;;4.72;3.67;;;;;;;;;;5058952;28;20215;-92
2022/04/14 10:45:23;;;;;;;8.95;4.13;;;;;;;;;;5058966;28;20230;-88
2022/04/14 10:47:56;;;;;;;3.70;3.20;;;;;;;;;;5062030;28;20177;-86
2022/04/14 10:50:24;;;;;;;4.72;3.60;;;;;;;;;;5058591;28;20316;-91
2022/04/14 10:53:02;;;;;;;7.75;3.80;;;;;;;;;;5079452;28;20174;-90
2022/04/14 10:55:35;;;;;;;6.05;3.65;;;;;;;;;;5062222;28;20196;-92
2022/04/14 10:58:01;;;;;;;3.90;3.47;;;;;;;;;;5059426;28;20177;-92
2022/04/14 11:00:37;;;;;;;4.55;4.15;;;;;;;;;;5058990;28;20182;-91
2022/04/14 11:03:13;;;;;;;3.50;2.80;;;;;;;;;;5058503;28;20177;-89
2022/04/14 11:05:47;;;;;;;4.20;2.58;;;;;;;;;;5074880;28;20181;-89
2022/04/14 11:08:24;;;;;;;4.07;3.47;;;;;;;;;;5070637;28;20191;-88
2022/04/14 11:11:08;;;;;;;3.08;2.42;;;;;;;;;;5058031;28;20206;-90
2022/04/14 11:13:53;;;;;;;2.97;2.72;;;;;;;;;;5062307;28;20179;-91
2022/04/14 11:16:38;;;;;;;3.67;3.17;;;;;;;;;;5065091;28;20206;-91
2022/04/14 11:19:19;;;;;;;3.50;2.78;;;;;;;;;;5064183;28;20187;-93
2022/04/14 11:22:01;;;;;;;3.78;2.90;;;;;;;;;;5062994;28;20188;-93
2022/04/14 11:24:36;;;;;;;4.53;2.13;;;;;;;;;;5079682;28;20184;-92
2022/04/14 11:27:30;;;;;;;3.05;2.85;;;;;;;;;;5062944;28;20188;-94
2022/04/14 11:30:00;;;;;;;4.05;2.70;;;;;;;;;;5046399;28;20192;-90
2022/04/14 11:32:36;;;;;;;3.30;3.03;;;;;;;;;;5064774;28;20544;-90
2022/04/14 11:35:13;;;;;;;3.30;3.00;;;;;;;;;;5066015;28;20427;-91
2022/04/14 11:37:43;;;;;;;3.03;2.30;;;;;;;;;;5064970;28;20466;-90
2022/04/14 11:40:12;;;;;;;5.13;2.27;;;;;;;;;;5062636;28;20478;-91
2022/04/14 11:42:38;;;;;;;2.65;2.35;;;;;;;;;;5062179;28;20433;-91
2022/04/14 11:45:05;;;;;;;2.80;2.07;;;;;;;;;;5062987;28;20192;-93
2022/04/14 11:47:32;;;;;;;2.77;2.57;;;;;;;;;;5079436;28;20955;-90
2022/04/14 11:49:58;;;;;;;3.38;2.08;;;;;;;;;;5092143;28;20556;-90
2022/04/14 11:52:24;;;;;;;2.00;1.80;;;;;;;;;;5075627;28;20199;-89
2022/04/14 11:54:50;;;;;;;3.10;2.80;;;;;;;;;;5065985;28;20182;-91
2022/04/14 11:57:20;;;;;;;2.92;1.92;;;;;;;;;;5062288;28;20230;-90
2022/04/14 11:59:50;;;;;;;3.20;1.70;;;;;;;;;;5078960;28;20172;-91
2022/04/14 12:02:18;;;;;;;6.13;2.30;;;;;;;;;;5078694;28;20188;-91
2022/04/14 12:04:47;;;;;;;3.15;2.13;;;;;;;;;;5064792;28;20186;-88
2022/04/14 12:07:13;;;;;;;2.42;2.22;;;;;;;;;;5062581;28;20203;-88
2022/04/14 12:09:43;;;;;;;2.73;2.20;;;;;;;;;;5063112;28;20185;-90
2022/04/14 12:12:10;;;;;;;4.22;3.30;;;;;;;;;;5062169;28;21018;-90
2022/04/14 12:14:36;;;;;;;2.65;2.03;;;;;;;;;;5061800;28;20270;-88
2022/04/14 12:17:03;;;;;;;2.35;2.15;;;;;;;;;;5081126;28;20266;-90
2022/04/14 12:19:42;;;;;;;2.23;2.03;;;;;;;;;;5063174;28;20169;-90
2022/04/14 12:22:08;;;;;;;2.80;1.87;;;;;;;;;;5061493;28;20441;-92
2022/04/14 12:24:34;;;;;;;5.10;2.33;;;;;;;;;;5061167;28;20432;-86
2022/04/14 12:27:00;;;;;;;3.17;2.20;;;;;;;;;;5063375;28;20436;-89
2022/04/14 12:29:27;;;;;;;2.27;1.70;;;;;;;;;;5070377;28;20417;-90
2022/04/14 12:31:58;;;;;;;2.20;1.60;;;;;;;;;;5081203;28;20398;-88
2022/04/14 12:34:24;;;;;;;3.53;1.77;;;;;;;;;;5064145;28;20411;-88
2022/04/14 12:37:07;;;;;;;1.60;1.50;;;;;;;;;;5061040;28;20440;-88
2022/04/14 12:39:33;;;;;;;3.50;1.87;;;;;;;;;;5062130;28;20422;-88
2022/04/14 12:42:00;;;;;;;3.90;1.33;;;;;;;;;;5061079;28;20418;-89
2022/04/14 12:44:26;;;;;;;1.80;1.30;;;;;;;;;;5071144;28;20419;-90
2022/04/14 12:46:52;;;;;;;1.30;1.20;;;;;;;;;;5066353;28;20404;-91
2022/04/14 12:49:21;;;;;;;4.00;1.73;;;;;;;;;;5062167;28;20429;-88
2022/04/14 12:51:55;;;;;;;5.07;2.03;;;;;;;;;;5061509;28;20419;-90
2022/04/14 12:54:23;;;;;;;1.53;1.30;;;;;;;;;;5060588;28;20442;-88
2022/04/14 12:56:56;;;;;;;2.13;1.77;;;;;;;;;;5061569;28;20466;-88
2022/04/14 12:59:22;;;;;;;1.30;1.20;;;;;;;;;;5046854;28;20439;-88
2022/04/14 13:01:50;;;;;;;1.20;1.10;;;;;;;;;;5063710;28;20432;-89
2022/04/14 13:04:18;;;;;;;2.43;1.37;;;;;;;;;;5045620;28;20776;-85
2022/04/14 13:06:57;;;;;;;1.20;1.10;;;;;;;;;;5053378;28;20436;-87
2022/04/14 13:09:23;;;;;;;1.50;1.40;;;;;;;;;;5051322;28;20503;-91
2022/04/14 13:11:49;;;;;;;1.90;1.37;;;;;;;;;;5062018;28;20452;-89
2022/04/14 13:14:19;;;;;;;1.83;1.20;;;;;;;;;;5070064;28;20471;-89
2022/04/14 13:16:45;;;;;;;2.10;1.10;;;;;;;;;;5065874;28;20500;-86
2022/04/14 13:19:12;;;;;;;1.10;1.00;;;;;;;;;;5061364;28;20469;-88
2022/04/14 13:21:38;;;;;;;2.67;1.07;;;;;;;;;;5062368;28;20930;-90
2022/04/14 13:24:04;;;;;;;1.10;1.00;;;;;;;;;;5060508;28;20487;-91
2022/04/14 13:26:30;;;;;;;2.30;0.83;;;;;;;;;;5061117;28;20432;-90
2022/04/14 13:28:56;;;;;;;1.80;1.00;;;;;;;;;;5072286;28;20402;-90
2022/04/14 13:31:22;;;;;;;1.20;1.00;;;;;;;;;;5061845;28;20427;-89
2022/04/14 13:33:48;;;;;;;2.97;1.10;;;;;;;;;;5059627;28;20629;-88
2022/04/14 13:36:15;;;;;;;1.30;1.20;;;;;;;;;;5059343;28;20434;-89
2022/04/14 13:38:41;;;;;;;1.20;1.07;;;;;;;;;;5061732;28;20415;-87
2022/04/14 13:41:07;;;;;;;1.07;1.00;;;;;;;;;;5059715;28;20447;-89
2022/04/14 13:43:33;;;;;;;3.40;1.27;;;;;;;;;;5062163;28;20392;-82
2022/04/14 13:45:59;;;;;;;1.33;1.23;;;;;;;;;;5060026;28;20538;-87
2022/04/14 13:48:25;;;;;;;1.23;1.13;;;;;;;;;;5062063;28;20439;-91
2022/04/14 13:50:51;;;;;;;1.40;0.97;;;;;;;;;;5060358;28;20446;-92
2022/04/14 13:53:17;;;;;;;1.00;0.80;;;;;;;;;;5060898;28;20436;-90
2022/04/14 13:55:43;;;;;;;2.37;1.20;;;;;;;;;;5062483;28;20469;-85
2022/04/14 13:58:09;;;;;;;1.00;0.80;;;;;;;;;;5060461;28;20436;-89
2022/04/14 14:00:35;;;;;;;1.60;1.20;;;;;;;;;;5063567;28;20458;-88
2022/04/14 14:03:04;;;;;;;1.10;0.90;;;;;;;;;;5061043;28;20438;-91
2022/04/14 14:05:30;;;;;;;2.77;1.13;;;;;;;;;;5059828;28;20444;-91
2022/04/14 14:07:56;;;;;;;2.67;1.00;;;;;;;;;;5062827;28;20398;-89
2022/04/14 14:10:22;;;;;;;1.20;0.80;;;;;;;;;;5059150;28;20422;-93
2022/04/14 14:12:48;;;;;;;2.30;1.23;;;;;;;;;;5061349;28;20421;-92
2022/04/14 14:15:14;;;;;;;1.17;1.07;;;;;;;;;;5059696;28;20514;-88
2022/04/14 14:17:40;;;;;;;1.13;1.00;;;;;;;;;;5077421;28;20489;-92
2022/04/14 14:20:08;;;;;;;2.03;1.03;;;;;;;;;;5079116;28;20396;-92
2022/04/14 14:22:34;;;;;;;1.47;0.90;;;;;;;;;;5064973;28;20475;-90
2022/04/14 14:25:00;;;;;;;0.93;0.93;;;;;;;;;;5059805;28;20419;-91
2022/04/14 14:27:26;;;;;;;1.07;0.70;;;;;;;;;;5060718;28;20428;-90
2022/04/14 14:29:52;;;;;;;1.23;0.90;;;;;;;;;;5059959;28;20428;-91
2022/04/14 14:32:18;;;;;;;1.10;0.83;;;;;;;;;;5062129;28;20505;-88
2022/04/14 14:34:44;;;;;;;0.80;0.80;;;;;;;;;;5062881;28;20487;-90
2022/04/14 14:37:10;;;;;;;1.10;1.00;;;;;;;;;;5059837;28;20474;-91
2022/04/14 14:39:36;;;;;;;0.90;0.80;;;;;;;;;;5059575;28;20466;-88
2022/04/14 14:42:03;;;;;;;3.03;1.03;;;;;;;;;;5059512;28;20490;-90